To NAV CANADA Home Page Login to a new session Search on AWWS site Feedback and Comments Disclaimer Vers la page française équivalente Tips FAQ What's new on the site To the Forecasts and Observations / NOTAM section To "File a Flight Plan" website Publications and other links Update of the User's profile FIC Telephone Numbers My Weather Data Folder Route Weather Data Regional Weather Data Local Weather Data To the Forecasts and Observations / NOTAM section
Request Generated 03/05/2015 at 16:01:31 UTC . Weather information available at that time is displayed.

METAR/TAF

GREENWOOD/NS    

METAR CYZX 051500Z 30016G22KT 15SM SCT060 OVC120 M03/M07 A2990 RMK SC4AC4 WNDY HILL 31017G27KT SLP126=
METAR CYZX 051400Z 31012G19KT 15SM SCT050 OVC120 M02/M04 A2986 RMK SC4AC4 WNDY HILL 32013G22KT SLP115=
METAR CYZX 051300Z 31017G24KT 15SM FEW030 OVC120 M02/M04 A2984 RMK SC1AC7 WNDY HILL 32016KT SLP105=

TAF CYZX 051130Z 0512/0612 27010KT P6SM OVC100
FM051500 31012G22KT P6SM SCT100
FM060600 36008KT P6SM SKC
BECMG 0609/0611 VRB03KT
RMK NXT FCST BY 051800Z=
Your time UTC time
Weather data provided by Environment Canada and NAV CANADA